Nearby METAR Reports

 

KSJC - San Jose, California, USA
Distance from station: NO 14km
Uppdaterad: 2019-08-25 18:53
Few Clouds
Few Clouds
 Vind från NNV
Vind: NNV 7 km/h
Temperatur: 22°C
Daggpunkt: 17°C
Luftfuktighet: 73%
Barometer: 1016.3 hPa
Clouds: Few Clouds
Visibility: 16 km
Cloud details: Few Clouds 213 m
2019/08/25 16:53 KSJC 251653Z 34004KT 10SM FEW007 22/17 A3001 RMK AO2 SLP160 T02220172
KNUQ - Moffett Nas/Mtn, California, USA
Distance from station: N 14km
Uppdaterad: 2019-08-25 19:03
Klart
Klart
 Vind från NNV
Vind: NNV 6 km/h
Temperatur: 21°C
Daggpunkt: 16°C
Luftfuktighet: 73%
Barometer: 1016.3 hPa
Clouds: Klart
Visibility: 14 km
2019/08/25 17:03 KNUQ 251703Z 34003KT 9SM CLR 21/16 A3001 RMK AO2 T02110161
 
KPAO - Palo Alto, California, USA
Distance from station: NNV 23km
Uppdaterad: 2019-08-25 18:47
Haze, Delvis molnigt
Haze, Delvis molnigt
 Vind från varies
Vind: varies 7 km/h
Temperatur: 19°C
Daggpunkt: 17°C
Luftfuktighet: 88%
Barometer: 1016.6 hPa
Summering: Haze
Clouds: Delvis molnigt
Visibility: 13 km
Cloud details: Delvis molnigt 274 m
2019/08/25 16:47 KPAO 251647Z VRB04KT 8SM HZ SCT009 19/17 A3002
KRHV - San Jose/Reid, California, USA
Distance from station: ONO 19km
Uppdaterad: 2019-08-25 18:47
Klart
Klart
 Vind från calm
Vind: Vindstilla
Temperatur: 22°C
Daggpunkt: 16°C
Luftfuktighet: 69%
Barometer: 1016.3 hPa
Clouds: Klart
Visibility: 13 km
2019/08/25 16:47 KRHV 251647Z 00000KT 8SM SKC 22/16 A3001
 
KOAK - Oakland, California, USA
Distance from station: NNV 50km
Uppdaterad: 2019-08-25 18:53
Haze, Genommulet
Haze, Genommulet
 Vind från VNV
Vind: VNV 6 km/h
Temperatur: 18°C
Daggpunkt: 15°C
Luftfuktighet: 83%
Barometer: 1016.6 hPa
Summering: Haze
Clouds: Genommulet
Visibility: 6 km
Cloud details: Genommulet 152 m
2019/08/25 16:53 KOAK 251653Z 30003KT 4SM HZ OVC005 18/15 A3002 RMK AO2 SLP166 T01780150
KSQL - San Carlos Airpo, California, USA
Distance from station: NV 34km
Uppdaterad: 2019-08-25 18:47
Delvis molnigt
Delvis molnigt
 Vind från calm
Vind: Vindstilla
Temperatur: 19°C
Daggpunkt: 17°C
Luftfuktighet: 88%
Barometer: 1016.6 hPa
Clouds: Delvis molnigt
Visibility: 13 km
Cloud details: Delvis molnigt 305 m
2019/08/25 16:47 KSQL 251647Z 00000KT 8SM SCT010 19/17 A3002
 
KSFO - San Francisco, California, USA
Distance from station: NV 49km
Uppdaterad: 2019-08-25 18:56
Delvis molnigt
Delvis molnigt
 Vind från NO
Vind: NO 6 km/h
Temperatur: 18°C
Daggpunkt: 14°C
Luftfuktighet: 78%
Barometer: 1016.3 hPa
Clouds: Delvis molnigt
Visibility: 13 km
Cloud details: Few Clouds 122 m
Delvis molnigt 244 m
2019/08/25 16:56 KSFO 251656Z 05003KT 8SM FEW004 SCT008 18/14 A3001 RMK AO2 SLP162 T01830144
KE16 - San Martin, California, USA
Distance from station: OSO 43km
Uppdaterad: 2019-08-05 19:10
NOT Current
Klart
Klart
 Vind från OSO
Vind: OSO 19 km/h
Temperatur: 19°C
Daggpunkt: 14°C
Luftfuktighet: 73%
Barometer: 1016.9 hPa
Clouds: Klart
Visibility: 16 km
2019/08/05 17:10 KE16 051710Z AUTO 12010KT 10SM CLR 19/14 A3003 RMK AO2
 
KWVI - Watsonville, California, USA
Distance from station: SSO 44km
Uppdaterad: 2019-08-25 19:05
Övervägande molnigt
Övervägande molnigt
 Vind från calm
Vind: Vindstilla
Temperatur: 20°C
Daggpunkt: 15°C
Luftfuktighet: 73%
Barometer: 1016.6 hPa
Clouds: Övervägande molnigt
Visibility: 16 km
Cloud details: Övervägande molnigt 213 m
2019/08/25 17:05 KWVI 251705Z AUTO 00000KT 10SM BKN007 20/15 A3002 RMK AO2 CIG 005V009 T02000150
KHAF - Half Moon Bay, California, USA
Distance from station: VNV 50km
Uppdaterad: 2019-08-25 19:00
Mist, Genommulet
Mist, Genommulet
 Vind från VNV
Vind: VNV 7 km/h
Temperatur: 15°C
Daggpunkt: 14°C
Luftfuktighet: 94%
Barometer: 1016.9 hPa
Summering: Mist
Clouds: Genommulet
Visibility: 2.8 km
Cloud details: Genommulet 91 m
2019/08/25 17:00 KHAF 251700Z AUTO 29004KT 1 3/4SM BR OVC003 15/14 A3003 RMK AO2
 
KHWD - Hayward, California, USA
Distance from station: N 44km
Uppdaterad: 2019-08-25 18:54
Haze, Delvis molnigt
Haze, Delvis molnigt
 Vind från varies
Vind: varies 6 km/h
Temperatur: 19°C
Daggpunkt: 16°C
Luftfuktighet: 83%
Barometer: 1016.3 hPa
Summering: Haze
Clouds: Delvis molnigt
Visibility: 10 km
Cloud details: Delvis molnigt 244 m
2019/08/25 16:54 KHWD 251654Z VRB03KT 6SM HZ SCT008 19/16 A3001 RMK AO2 SLP172 T01890156
KLVK - Livermore, California, USA
Distance from station: NNO 51km
Uppdaterad: 2019-08-25 18:53
Klart
Klart
 Vind från calm
Vind: Vindstilla
Temperatur: 24°C
Daggpunkt: 16°C
Luftfuktighet: 61%
Barometer: 1015.6 hPa
Clouds: Klart
Visibility: 16 km
2019/08/25 16:53 KLVK 251653Z 00000KT 10SM CLR 24/16 A2999 RMK AO2 SLP151 T02390156